createdAt,value
2023-02-15T00:02:06.315Z,18.27
2023-02-15T00:04:48.030Z,20.27
2023-02-15T00:07:19.797Z,20.15
2023-02-15T00:09:48.542Z,20.50
2023-02-15T00:12:17.561Z,21.25
2023-02-15T00:14:45.808Z,15.40
2023-02-15T00:17:13.703Z,16.63
2023-02-15T00:19:42.111Z,19.27
2023-02-15T00:22:10.331Z,20.02
2023-02-15T00:24:39.626Z,18.67
2023-02-15T00:27:07.639Z,19.30
2023-02-15T00:29:35.632Z,18.88
2023-02-15T00:32:03.535Z,18.27
2023-02-15T00:34:31.510Z,22.10
2023-02-15T00:36:59.440Z,19.50
2023-02-15T00:39:28.304Z,18.38
2023-02-15T00:41:57.851Z,18.38
2023-02-15T00:44:25.719Z,16.05
2023-02-15T00:46:53.624Z,14.90
2023-02-15T00:49:22.434Z,15.55
2023-02-15T00:51:50.342Z,13.45
2023-02-15T00:54:18.225Z,12.70
2023-02-15T00:56:46.131Z,12.00
2023-02-15T00:59:15.559Z,11.95
2023-02-15T01:01:43.496Z,11.55
2023-02-15T01:04:11.396Z,12.23
2023-02-15T01:06:39.338Z,10.98
2023-02-15T01:09:07.434Z,11.10
2023-02-15T01:11:35.331Z,11.18
2023-02-15T01:14:04.221Z,11.88
2023-02-15T01:16:33.598Z,12.68
2023-02-15T01:19:03.535Z,12.20
2023-02-15T01:21:35.383Z,12.40
2023-02-15T01:24:04.380Z,11.45
2023-02-15T01:26:32.278Z,10.65
2023-02-15T01:29:00.391Z,11.73
2023-02-15T01:31:28.361Z,9.65
2023-02-15T01:33:57.823Z,10.90
2023-02-15T01:36:25.694Z,10.38
2023-02-15T01:38:53.659Z,11.00
2023-02-15T01:41:28.157Z,10.35
2023-02-15T01:43:58.518Z,10.57
2023-02-15T01:46:30.963Z,9.80
2023-02-15T01:49:04.185Z,10.63
2023-02-15T01:51:36.699Z,11.60
2023-02-15T01:54:11.931Z,11.05
2023-02-15T01:56:41.809Z,11.10
2023-02-15T01:59:16.954Z,11.93
2023-02-15T02:01:46.069Z,12.68
2023-02-15T02:04:19.555Z,12.52
2023-02-15T02:06:50.985Z,12.77
2023-02-15T02:09:19.102Z,13.30
2023-02-15T02:11:49.499Z,13.80
2023-02-15T02:14:18.022Z,12.43
2023-02-15T02:16:52.099Z,13.10
2023-02-15T02:20:07.130Z,13.35
2023-02-15T02:22:59.143Z,12.30
2023-02-15T02:26:09.385Z,11.23
2023-02-15T02:29:06.332Z,11.18
2023-02-15T02:31:54.041Z,11.60
2023-02-15T02:34:30.645Z,11.10
2023-02-15T02:37:04.038Z,11.50
2023-02-15T02:39:40.143Z,13.07
2023-02-15T02:42:14.486Z,12.13
2023-02-15T02:44:46.100Z,13.38
2023-02-15T02:47:18.535Z,13.30
2023-02-15T02:49:47.887Z,13.90
2023-02-15T02:52:36.943Z,13.38
2023-02-15T02:55:08.387Z,12.23
2023-02-15T02:57:42.568Z,12.77
2023-02-15T03:00:12.020Z,12.60
2023-02-15T03:02:44.211Z,11.65
2023-02-15T03:05:17.761Z,13.13
2023-02-15T03:07:48.850Z,14.07
2023-02-15T03:10:17.682Z,12.73
2023-02-15T03:12:45.846Z,13.02
2023-02-15T03:15:18.096Z,13.65
2023-02-15T03:17:50.167Z,12.68
2023-02-15T03:20:26.454Z,11.35
2023-02-15T03:23:00.381Z,12.05
2023-02-15T03:25:33.757Z,14.93
2023-02-15T03:28:05.641Z,11.77
2023-02-15T03:30:36.913Z,13.52
2023-02-15T03:33:06.881Z,12.48
2023-02-15T03:35:41.404Z,11.68
2023-02-15T03:38:11.754Z,11.52
2023-02-15T03:40:59.880Z,12.38
2023-02-15T03:43:33.542Z,11.57
2023-02-15T03:46:08.714Z,12.23
2023-02-15T03:48:41.599Z,12.10
2023-02-15T03:51:33.728Z,11.85
2023-02-15T03:54:03.941Z,10.57
2023-02-15T03:56:32.126Z,11.85
2023-02-15T03:59:17.354Z,12.02
2023-02-15T04:02:00.148Z,10.70
2023-02-15T04:04:36.391Z,11.23
2023-02-15T04:07:08.533Z,11.13
2023-02-15T04:09:54.144Z,11.68
2023-02-15T04:12:22.578Z,11.48
2023-02-15T04:15:07.817Z,11.98
2023-02-15T04:17:35.924Z,10.88
2023-02-15T04:20:21.470Z,12.32
2023-02-15T04:23:08.390Z,9.15
2023-02-15T04:25:36.346Z,10.80
2023-02-15T04:28:04.587Z,9.93
2023-02-15T04:30:32.652Z,10.70
2023-02-15T04:33:00.619Z,10.70
2023-02-15T04:35:28.792Z,10.57
2023-02-15T04:37:58.221Z,9.82
2023-02-15T04:40:26.298Z,10.52
2023-02-15T04:42:54.284Z,10.32
2023-02-15T04:45:22.162Z,10.55
2023-02-15T04:47:50.434Z,9.13
2023-02-15T04:50:18.548Z,9.27
2023-02-15T04:52:46.867Z,10.07
2023-02-15T04:55:16.319Z,10.95
2023-02-15T04:57:44.372Z,9.60
2023-02-15T05:00:13.075Z,10.80
2023-02-15T05:02:40.975Z,10.18
2023-02-15T05:05:10.517Z,9.48
2023-02-15T05:07:38.400Z,9.57
2023-02-15T05:10:07.444Z,10.18
2023-02-15T05:12:36.893Z,10.45
2023-02-15T05:15:05.157Z,10.25
2023-02-15T05:17:33.062Z,10.63
2023-02-15T05:20:01.071Z,12.18
2023-02-15T05:22:29.138Z,11.23
2023-02-15T05:25:14.770Z,12.13
2023-02-15T05:28:01.316Z,10.52
2023-02-15T05:30:29.515Z,12.60
2023-02-15T05:32:57.754Z,12.45
2023-02-15T05:35:26.009Z,12.50
2023-02-15T05:37:54.188Z,12.35
2023-02-15T05:40:22.148Z,12.52
2023-02-15T05:42:51.657Z,13.55
2023-02-15T05:45:19.836Z,13.45
2023-02-15T05:47:48.170Z,11.90
2023-02-15T05:50:16.170Z,13.40
2023-02-15T05:52:44.278Z,12.55
2023-02-15T05:55:12.432Z,14.30
2023-02-15T05:57:40.419Z,14.77
2023-02-15T06:00:11.080Z,15.38
2023-02-15T06:02:42.003Z,17.52
2023-02-15T06:05:10.224Z,16.90
2023-02-15T06:07:38.278Z,16.45
2023-02-15T06:10:07.462Z,16.27
2023-02-15T06:12:35.396Z,16.35
2023-02-15T06:15:03.395Z,16.38
2023-02-15T06:17:32.780Z,16.42
2023-02-15T06:20:00.733Z,17.67
2023-02-15T06:22:28.705Z,17.13
2023-02-15T06:24:56.655Z,17.10
2023-02-15T06:27:24.646Z,16.30
2023-02-15T06:29:52.640Z,17.92
2023-02-15T06:32:20.606Z,16.90
2023-02-15T06:34:49.889Z,17.08
2023-02-15T06:37:17.826Z,19.42
2023-02-15T06:39:45.825Z,18.90
2023-02-15T06:42:13.808Z,17.83
2023-02-15T06:44:41.877Z,18.25
2023-02-15T06:47:09.773Z,15.70
2023-02-15T06:49:37.717Z,16.08
2023-02-15T06:52:07.223Z,14.93
2023-02-15T06:54:35.159Z,13.23
2023-02-15T06:57:03.214Z,13.93
2023-02-15T06:59:31.267Z,13.02
2023-02-15T07:01:59.571Z,14.35
2023-02-15T07:04:29.639Z,15.23
2023-02-15T07:06:57.751Z,13.32
2023-02-15T07:09:27.332Z,15.05
2023-02-15T07:12:17.888Z,14.18
2023-02-15T07:14:45.927Z,12.70
2023-02-15T07:17:34.468Z,13.05
2023-02-15T07:20:01.897Z,13.45
2023-02-15T07:22:29.952Z,13.70
2023-02-15T07:24:59.679Z,14.57
2023-02-15T07:27:27.599Z,17.13
2023-02-15T07:29:55.602Z,16.33
2023-02-15T07:32:23.679Z,15.93
2023-02-15T07:34:51.624Z,17.10
2023-02-15T07:37:19.572Z,15.35
2023-02-15T07:39:47.566Z,13.45
2023-02-15T07:42:17.071Z,11.07
2023-02-15T07:44:45.046Z,16.48
2023-02-15T07:47:14.059Z,19.65
2023-02-15T07:49:42.328Z,28.05
2023-02-15T07:52:10.398Z,28.17
2023-02-15T07:54:38.394Z,27.20
2023-02-15T07:57:06.509Z,24.23
2023-02-15T07:59:35.896Z,21.85
2023-02-15T08:02:03.952Z,20.88
2023-02-15T08:04:32.142Z,18.23
2023-02-15T08:07:00.131Z,14.48
2023-02-15T08:09:28.063Z,13.00
2023-02-15T08:11:56.025Z,13.38
2023-02-15T08:14:24.231Z,11.75
2023-02-15T08:16:54.314Z,12.38
2023-02-15T08:19:24.011Z,12.68
2023-02-15T08:21:54.425Z,10.93
2023-02-15T08:24:25.283Z,10.77
2023-02-15T08:26:53.877Z,10.70
2023-02-15T08:29:24.290Z,9.82
2023-02-15T08:31:56.218Z,10.07
2023-02-15T08:34:24.451Z,8.82
2023-02-15T08:36:52.428Z,10.80
2023-02-15T08:39:20.558Z,12.68
2023-02-15T08:41:49.396Z,12.73
2023-02-15T08:44:19.213Z,12.80
2023-02-15T08:46:49.009Z,12.27
2023-02-15T08:49:21.990Z,10.30
2023-02-15T08:51:51.354Z,11.88
2023-02-15T08:54:20.839Z,14.38
2023-02-15T08:56:49.021Z,14.82
2023-02-15T08:59:19.628Z,17.85
2023-02-15T09:01:50.763Z,20.38
2023-02-15T09:04:21.097Z,19.42
2023-02-15T09:06:50.804Z,20.50
2023-02-15T09:09:19.407Z,20.23
2023-02-15T09:11:48.909Z,21.80
2023-02-15T09:14:21.006Z,19.33
2023-02-15T09:16:51.957Z,18.50
2023-02-15T09:19:23.431Z,16.05
2023-02-15T09:21:52.466Z,15.52
2023-02-15T09:24:20.534Z,14.50
2023-02-15T09:26:50.201Z,13.75
2023-02-15T09:29:19.380Z,14.23
2023-02-15T09:31:49.782Z,13.88
2023-02-15T09:34:19.928Z,13.63
2023-02-15T09:36:49.578Z,13.07
2023-02-15T09:39:20.377Z,12.57
2023-02-15T09:42:15.214Z,11.77
2023-02-15T09:45:00.170Z,13.25
2023-02-15T09:47:52.433Z,11.82
2023-02-15T09:50:28.067Z,12.48
2023-02-15T09:53:22.066Z,14.35
2023-02-15T09:55:56.621Z,13.82
2023-02-15T09:58:35.627Z,10.25
2023-02-15T10:01:11.076Z,13.65
2023-02-15T10:03:59.982Z,12.93
2023-02-15T10:06:42.744Z,12.65
2023-02-15T10:09:35.189Z,12.05
2023-02-15T10:12:30.121Z,12.85
2023-02-15T10:15:15.614Z,13.68
2023-02-15T10:17:59.103Z,11.82
2023-02-15T10:20:36.438Z,12.60
2023-02-15T10:23:19.237Z,11.85
2023-02-15T10:25:53.927Z,14.18
2023-02-15T10:28:28.838Z,12.93
2023-02-15T10:31:07.016Z,13.48
2023-02-15T10:33:41.413Z,14.73
2023-02-15T10:36:22.294Z,13.93
2023-02-15T10:38:56.483Z,13.45
2023-02-15T10:41:41.600Z,13.85
2023-02-15T10:44:26.104Z,13.38
2023-02-15T10:47:19.614Z,13.88
2023-02-15T10:50:08.487Z,14.15
2023-02-15T10:52:54.786Z,13.23
2023-02-15T10:55:32.985Z,13.05
2023-02-15T10:58:14.429Z,12.60
2023-02-15T11:00:47.522Z,13.30
2023-02-15T11:03:35.467Z,13.45
2023-02-15T11:06:08.209Z,11.68
2023-02-15T11:08:41.607Z,11.77
2023-02-15T11:11:14.514Z,12.93
2023-02-15T11:13:47.492Z,12.85
2023-02-15T11:16:18.923Z,13.13
2023-02-15T11:18:53.618Z,12.25
2023-02-15T11:21:24.359Z,12.15
2023-02-15T11:23:53.993Z,12.18
2023-02-15T11:26:29.934Z,11.60
2023-02-15T11:29:03.799Z,12.20
2023-02-15T11:31:44.462Z,12.43
2023-02-15T11:34:19.832Z,12.02
2023-02-15T11:36:51.116Z,12.90
2023-02-15T11:39:22.019Z,11.50
2023-02-15T11:41:54.903Z,12.32
2023-02-15T11:44:28.319Z,11.40
2023-02-15T11:46:56.370Z,10.38
2023-02-15T11:49:27.522Z,11.02
2023-02-15T11:51:57.165Z,11.45
2023-02-15T11:54:36.583Z,10.85
2023-02-15T11:57:16.657Z,11.57
2023-02-15T11:59:51.819Z,12.40
2023-02-15T12:02:21.902Z,11.75
2023-02-15T12:04:54.704Z,10.90
2023-02-15T12:07:27.083Z,11.00
2023-02-15T12:10:01.455Z,11.18
2023-02-15T12:12:30.853Z,11.70
2023-02-15T12:15:01.737Z,10.88
2023-02-15T12:17:32.658Z,11.65
2023-02-15T12:20:04.625Z,11.27
2023-02-15T12:22:35.007Z,11.10
2023-02-15T12:25:05.989Z,11.05
2023-02-15T12:27:36.655Z,11.35
2023-02-15T12:30:08.469Z,12.63
2023-02-15T12:32:38.435Z,12.70
2023-02-15T12:35:12.562Z,12.20
2023-02-15T12:37:40.572Z,12.45
2023-02-15T12:40:22.644Z,12.70
2023-02-15T12:42:50.807Z,12.00
2023-02-15T12:45:26.418Z,12.98
2023-02-15T12:48:18.622Z,15.77
2023-02-15T12:50:54.771Z,18.90
2023-02-15T12:53:24.865Z,22.23
2023-02-15T12:55:55.414Z,25.55
2023-02-15T12:58:26.291Z,26.75
2023-02-15T13:01:16.513Z,23.17
2023-02-15T13:03:59.849Z,22.52
2023-02-15T13:06:29.530Z,25.55
2023-02-15T13:09:00.468Z,21.10
2023-02-15T13:11:35.060Z,19.02
2023-02-15T13:14:05.516Z,18.50
2023-02-15T13:16:38.766Z,16.23
2023-02-15T13:19:13.580Z,15.93
2023-02-15T13:21:46.119Z,16.58
2023-02-15T13:24:22.941Z,14.13
2023-02-15T13:26:51.214Z,14.18
2023-02-15T13:29:24.585Z,15.32
2023-02-15T13:31:56.249Z,13.90
2023-02-15T13:34:27.822Z,13.30
2023-02-15T13:37:01.517Z,15.15
2023-02-15T13:39:36.372Z,14.27
2023-02-15T13:42:15.499Z,13.73
2023-02-15T13:45:09.154Z,15.13
2023-02-15T13:47:47.774Z,14.10
2023-02-15T13:50:32.031Z,13.90
2023-02-15T13:53:18.622Z,15.32
2023-02-15T13:55:53.088Z,15.73
2023-02-15T13:58:50.297Z,15.90
2023-02-15T14:01:28.667Z,15.25
2023-02-15T14:04:23.024Z,18.17
2023-02-15T14:07:22.392Z,18.10
2023-02-15T14:10:02.449Z,18.48
2023-02-15T14:12:43.436Z,19.65
2023-02-15T14:15:26.576Z,19.73
2023-02-15T14:18:06.192Z,19.80
2023-02-15T14:20:47.191Z,19.50
2023-02-15T14:23:31.151Z,19.20
2023-02-15T14:26:03.721Z,20.27
2023-02-15T14:28:40.454Z,18.05
2023-02-15T14:31:12.171Z,18.15
2023-02-15T14:33:43.825Z,20.33
2023-02-15T14:36:17.525Z,17.45
2023-02-15T14:39:01.920Z,18.10
2023-02-15T14:41:37.978Z,19.85
2023-02-15T14:44:14.680Z,18.83
2023-02-15T14:46:50.373Z,17.38
2023-02-15T14:49:23.004Z,17.13
2023-02-15T14:52:02.699Z,17.70
2023-02-15T14:54:59.783Z,18.75
2023-02-15T14:57:35.813Z,16.60
2023-02-15T15:00:41.963Z,15.05
2023-02-15T15:03:22.220Z,14.88
2023-02-15T15:05:53.923Z,14.32
2023-02-15T15:08:31.051Z,14.82
2023-02-15T15:10:59.688Z,13.13
2023-02-15T15:13:54.833Z,13.15
2023-02-15T15:16:49.660Z,11.93
2023-02-15T15:20:08.427Z,12.82
2023-02-15T15:22:38.272Z,14.02
2023-02-15T15:25:12.470Z,11.70
2023-02-15T15:27:46.823Z,13.63
2023-02-15T15:30:50.001Z,12.32
2023-02-15T15:33:56.613Z,12.93
2023-02-15T15:37:02.620Z,14.32
2023-02-15T15:40:19.363Z,13.57
2023-02-15T15:43:17.211Z,16.15
2023-02-15T15:46:12.652Z,15.57
2023-02-15T15:48:42.423Z,15.48
2023-02-15T15:51:20.300Z,15.13
2023-02-15T15:53:54.080Z,15.00
2023-02-15T15:56:25.559Z,14.48
2023-02-15T15:58:59.612Z,13.70
2023-02-15T16:01:30.435Z,15.48
2023-02-15T16:04:01.124Z,13.60
2023-02-15T16:06:35.121Z,12.57
2023-02-15T16:09:19.972Z,12.90
2023-02-15T16:11:49.911Z,13.73
2023-02-15T16:14:27.927Z,13.65
2023-02-15T16:16:59.339Z,13.10
2023-02-15T16:19:30.717Z,12.25
2023-02-15T16:22:01.514Z,12.00
2023-02-15T16:24:48.461Z,11.85
2023-02-15T16:27:35.446Z,12.88
2023-02-15T16:30:39.509Z,11.57
2023-02-15T16:33:09.689Z,12.30
2023-02-15T16:35:39.612Z,13.10
2023-02-15T16:38:10.973Z,12.85
2023-02-15T16:40:47.853Z,12.15
2023-02-15T16:43:25.167Z,11.20
2023-02-15T16:45:58.690Z,12.23
2023-02-15T16:48:29.366Z,11.57
2023-02-15T16:50:59.911Z,11.70
2023-02-15T16:53:30.252Z,11.20
2023-02-15T16:56:01.661Z,11.48
2023-02-15T16:58:34.380Z,11.43
2023-02-15T17:01:05.056Z,11.80
2023-02-15T17:03:33.390Z,11.00
2023-02-15T17:06:03.870Z,10.18
2023-02-15T17:08:34.090Z,9.73
2023-02-15T17:11:16.615Z,10.05
2023-02-15T17:14:23.770Z,9.85
2023-02-15T17:16:57.401Z,10.23
2023-02-15T17:19:29.104Z,9.38
2023-02-15T17:21:59.309Z,10.25
2023-02-15T17:24:37.308Z,10.43
2023-02-15T17:27:12.365Z,9.13
2023-02-15T17:29:42.994Z,9.30
2023-02-15T17:32:19.979Z,9.93
2023-02-15T17:35:11.158Z,8.48
2023-02-15T17:37:48.473Z,8.43
2023-02-15T17:40:25.181Z,8.73
2023-02-15T17:42:53.676Z,9.35
2023-02-15T17:45:22.993Z,8.07
2023-02-15T17:47:52.844Z,8.18
2023-02-15T17:50:23.328Z,7.85
2023-02-15T17:52:52.172Z,8.65
2023-02-15T17:55:40.035Z,7.97
2023-02-15T17:58:11.220Z,8.27
2023-02-15T18:01:00.471Z,8.15
2023-02-15T18:03:56.978Z,7.78
2023-02-15T18:06:42.806Z,8.32
2023-02-15T18:09:30.670Z,8.15
2023-02-15T18:11:59.678Z,9.40
2023-02-15T18:14:27.939Z,7.97
2023-02-15T18:16:56.775Z,9.05
2023-02-15T18:19:27.810Z,8.82
2023-02-15T18:21:57.767Z,8.88
2023-02-15T18:24:27.684Z,9.27
2023-02-15T18:26:56.076Z,8.90
2023-02-15T18:29:24.091Z,8.45
2023-02-15T18:31:56.967Z,9.32
2023-02-15T18:34:30.833Z,9.15
2023-02-15T18:36:59.813Z,9.98
2023-02-15T18:39:37.671Z,9.40
2023-02-15T18:42:06.192Z,8.82
2023-02-15T18:44:34.173Z,9.18
2023-02-15T18:47:02.151Z,20.90
2023-02-15T18:49:31.430Z,20.33
2023-02-15T18:51:59.451Z,26.65
2023-02-15T18:54:27.415Z,27.88
2023-02-15T18:56:57.734Z,27.20
2023-02-15T18:59:27.676Z,29.77
2023-02-15T19:01:55.821Z,30.02
2023-02-15T19:04:25.706Z,31.70
2023-02-15T19:06:55.464Z,27.88
2023-02-15T19:09:26.214Z,29.45
2023-02-15T19:11:55.791Z,28.42
2023-02-15T19:14:29.799Z,32.17
2023-02-15T19:16:59.527Z,30.30
2023-02-15T19:19:28.674Z,31.92
2023-02-15T19:21:58.094Z,28.70
2023-02-15T19:24:34.140Z,32.50
2023-02-15T19:27:02.674Z,30.05
2023-02-15T19:29:31.799Z,30.92
2023-02-15T19:32:00.243Z,29.20
2023-02-15T19:34:28.976Z,30.10
2023-02-15T19:36:58.614Z,30.27
2023-02-15T19:39:29.265Z,30.27
2023-02-15T19:41:57.298Z,31.30
2023-02-15T19:44:25.688Z,30.58
2023-02-15T19:46:54.187Z,28.75
2023-02-15T19:49:22.286Z,29.67
2023-02-15T19:51:50.523Z,29.30
2023-02-15T19:54:30.770Z,34.53
2023-02-15T19:56:59.051Z,27.30
2023-02-15T19:59:28.625Z,27.45
2023-02-15T20:01:57.086Z,22.77
2023-02-15T20:04:25.848Z,22.20
2023-02-15T20:06:56.930Z,17.23
2023-02-15T20:09:29.895Z,15.80
2023-02-15T20:11:58.127Z,17.00
2023-02-15T20:14:26.368Z,18.30
2023-02-15T20:16:54.338Z,16.83
2023-02-15T20:19:22.335Z,15.43
2023-02-15T20:21:54.442Z,15.73
2023-02-15T20:24:24.324Z,16.77
2023-02-15T20:26:53.711Z,14.77
2023-02-15T20:29:21.646Z,16.75
2023-02-15T20:31:49.778Z,18.83
2023-02-15T20:34:17.804Z,16.30
2023-02-15T20:36:45.877Z,18.13
2023-02-15T20:39:17.394Z,17.90
2023-02-15T20:41:48.341Z,16.38
2023-02-15T20:44:22.098Z,19.50
2023-02-15T20:46:52.347Z,18.63
2023-02-15T20:49:20.274Z,19.88
2023-02-15T20:51:48.563Z,22.85
2023-02-15T20:54:18.883Z,24.35
2023-02-15T20:56:47.481Z,25.63
2023-02-15T20:59:27.724Z,24.67
2023-02-15T21:02:00.386Z,26.75
2023-02-15T21:04:32.365Z,28.77
2023-02-15T21:07:00.855Z,26.60
2023-02-15T21:09:29.406Z,30.23
2023-02-15T21:11:59.693Z,33.05
2023-02-15T21:14:29.777Z,33.95
2023-02-15T21:16:57.706Z,34.55
2023-02-15T21:19:25.839Z,33.42
2023-02-15T21:21:54.743Z,31.08
2023-02-15T21:24:25.683Z,29.27
2023-02-15T21:26:55.105Z,33.55
2023-02-15T21:29:24.752Z,26.40
2023-02-15T21:31:54.326Z,25.88
2023-02-15T21:34:22.403Z,28.30
2023-02-15T21:36:51.381Z,24.23
2023-02-15T21:39:22.483Z,21.15
2023-02-15T21:42:09.536Z,19.83
2023-02-15T21:44:54.886Z,21.85
2023-02-15T21:47:43.866Z,10.45
2023-02-15T21:50:32.555Z,9.77
2023-02-15T21:53:00.691Z,10.77
2023-02-15T21:55:28.892Z,10.27
2023-02-15T21:57:57.049Z,10.73
2023-02-15T22:00:26.318Z,12.48
2023-02-15T22:02:59.172Z,12.57
2023-02-15T22:05:30.816Z,14.25
2023-02-15T22:07:59.090Z,12.60
2023-02-15T22:10:30.411Z,11.90
2023-02-15T22:13:00.609Z,12.70
2023-02-15T22:15:33.315Z,12.55
2023-02-15T22:18:02.804Z,11.32
2023-02-15T22:20:31.157Z,11.90
2023-02-15T22:22:59.072Z,10.95
2023-02-15T22:25:27.870Z,10.98
2023-02-15T22:27:56.408Z,11.70
2023-02-15T22:30:27.196Z,11.77
2023-02-15T22:32:56.078Z,11.45
2023-02-15T22:35:27.702Z,11.30
2023-02-15T22:37:56.179Z,10.80
2023-02-15T22:40:28.544Z,10.40
2023-02-15T22:42:58.038Z,10.38
2023-02-15T22:45:28.083Z,9.80
2023-02-15T22:47:59.676Z,9.88
2023-02-15T22:50:31.849Z,12.30
2023-02-15T22:53:01.912Z,14.15
2023-02-15T22:55:34.057Z,12.63
2023-02-15T22:58:02.750Z,13.30
2023-02-15T23:00:35.068Z,13.38
2023-02-15T23:03:03.154Z,13.57
2023-02-15T23:05:32.765Z,13.52
2023-02-15T23:08:00.721Z,14.63
2023-02-15T23:10:31.280Z,13.55
2023-02-15T23:13:18.936Z,11.77
2023-02-15T23:15:48.962Z,12.38
2023-02-15T23:18:19.984Z,11.88
2023-02-15T23:20:52.697Z,12.25
2023-02-15T23:23:27.162Z,10.63
2023-02-15T23:25:55.283Z,12.50
2023-02-15T23:28:26.720Z,11.43
2023-02-15T23:30:54.850Z,11.82
2023-02-15T23:33:25.140Z,11.57
2023-02-15T23:35:54.474Z,12.00
2023-02-15T23:38:27.374Z,12.55
2023-02-15T23:41:15.705Z,11.35
2023-02-15T23:43:47.534Z,11.00
2023-02-15T23:46:29.104Z,11.63
2023-02-15T23:48:57.366Z,11.40
2023-02-15T23:51:30.494Z,11.57
2023-02-15T23:53:59.248Z,11.05
2023-02-15T23:56:27.481Z,11.32
2023-02-15T23:58:55.560Z,11.70
